sensor_id;sensor_type;location;lat;lon;timestamp;pressure;altitude;pressure_sealevel;temperature;humidity
30338;BME280;17143;51.888;5.408;2023-04-19T00:04:26;102583.38;;;11.15;89.95
30338;BME280;17143;51.888;5.408;2023-04-19T00:19:28;102576.53;;;11.27;89.91
30338;BME280;17143;51.888;5.408;2023-04-19T00:34:30;102564.19;;;11.36;90.28
30338;BME280;17143;51.888;5.408;2023-04-19T00:49:32;102543.56;;;11.39;91.16
30338;BME280;17143;51.888;5.408;2023-04-19T01:04:34;102548.53;;;11.36;92.36
30338;BME280;17143;51.888;5.408;2023-04-19T01:19:37;102545.34;;;11.29;93.18
30338;BME280;17143;51.888;5.408;2023-04-19T01:34:39;102543.63;;;11.29;93.40
30338;BME280;17143;51.888;5.408;2023-04-19T01:49:40;102540.53;;;11.23;94.17
30338;BME280;17143;51.888;5.408;2023-04-19T02:04:43;102537.22;;;11.14;94.68
30338;BME280;17143;51.888;5.408;2023-04-19T02:19:45;102529.84;;;11.09;95.69
30338;BME280;17143;51.888;5.408;2023-04-19T02:34:47;102533.38;;;10.99;95.95
30338;BME280;17143;51.888;5.408;2023-04-19T02:49:49;102541.88;;;10.75;96.50
30338;BME280;17143;51.888;5.408;2023-04-19T03:04:52;102547.00;;;10.63;97.20
30338;BME280;17143;51.888;5.408;2023-04-19T03:19:55;102539.91;;;10.51;97.89
30338;BME280;17143;51.888;5.408;2023-04-19T03:34:58;102531.22;;;10.40;98.32
30338;BME280;17143;51.888;5.408;2023-04-19T03:50:00;102530.03;;;10.36;98.80
30338;BME280;17143;51.888;5.408;2023-04-19T04:05:05;102537.09;;;10.37;99.14
30338;BME280;17143;51.888;5.408;2023-04-19T04:20:10;102539.41;;;10.45;98.37
30338;BME280;17143;51.888;5.408;2023-04-19T04:35:12;102529.38;;;10.39;97.55
30338;BME280;17143;51.888;5.408;2023-04-19T04:50:20;102533.97;;;10.31;97.16
30338;BME280;17143;51.888;5.408;2023-04-19T05:05:24;102530.59;;;10.22;94.83
30338;BME280;17143;51.888;5.408;2023-04-19T05:20:27;102536.06;;;10.25;93.09
30338;BME280;17143;51.888;5.408;2023-04-19T05:35:38;102554.56;;;10.28;92.20
30338;BME280;17143;51.888;5.408;2023-04-19T05:50:41;102544.59;;;12.91;78.77
30338;BME280;17143;51.888;5.408;2023-04-19T06:06:15;102549.38;;;15.27;66.67
30338;BME280;17143;51.888;5.408;2023-04-19T06:21:17;102545.38;;;15.90;60.51
30338;BME280;17143;51.888;5.408;2023-04-19T06:36:19;102558.41;;;16.32;55.08
30338;BME280;17143;51.888;5.408;2023-04-19T06:51:21;102557.53;;;16.91;49.71
30338;BME280;17143;51.888;5.408;2023-04-19T07:06:23;102560.28;;;16.78;48.92
30338;BME280;17143;51.888;5.408;2023-04-19T07:21:25;102559.94;;;17.19;45.62
30338;BME280;17143;51.888;5.408;2023-04-19T07:36:27;102559.13;;;17.69;41.87
30338;BME280;17143;51.888;5.408;2023-04-19T07:51:29;102552.50;;;18.27;40.65
30338;BME280;17143;51.888;5.408;2023-04-19T08:06:31;102569.09;;;17.74;39.18
30338;BME280;17143;51.888;5.408;2023-04-19T08:21:33;102559.53;;;17.92;38.22
30338;BME280;17143;51.888;5.408;2023-04-19T08:36:35;102552.69;;;18.65;37.18
30338;BME280;17143;51.888;5.408;2023-04-19T08:51:37;102542.38;;;18.36;36.71
30338;BME280;17143;51.888;5.408;2023-04-19T09:06:40;102551.25;;;18.54;35.09
30338;BME280;17143;51.888;5.408;2023-04-19T09:21:43;102541.03;;;18.26;35.62
30338;BME280;17143;51.888;5.408;2023-04-19T09:36:45;102525.50;;;18.32;34.55
30338;BME280;17143;51.888;5.408;2023-04-19T09:51:48;102536.41;;;17.38;34.21
30338;BME280;17143;51.888;5.408;2023-04-19T10:06:52;102537.25;;;17.53;35.44
30338;BME280;17143;51.888;5.408;2023-04-19T10:21:55;102524.69;;;17.82;35.92
30338;BME280;17143;51.888;5.408;2023-04-19T10:36:57;102530.25;;;17.88;35.98
30338;BME280;17143;51.888;5.408;2023-04-19T10:51:59;102516.47;;;17.76;36.58
30338;BME280;17143;51.888;5.408;2023-04-19T11:07:05;102494.06;;;17.51;35.66
30338;BME280;17143;51.888;5.408;2023-04-19T11:22:07;102476.34;;;17.99;34.80
30338;BME280;17143;51.888;5.408;2023-04-19T11:37:10;102468.22;;;17.44;33.25
30338;BME280;17143;51.888;5.408;2023-04-19T11:52:19;102439.25;;;17.60;32.71
30338;BME280;17143;51.888;5.408;2023-04-19T12:07:21;102414.03;;;17.49;32.94
30338;BME280;17143;51.888;5.408;2023-04-19T12:22:23;102421.75;;;17.62;29.93
30338;BME280;17143;51.888;5.408;2023-04-19T12:37:25;102388.25;;;17.95;31.15
30338;BME280;17143;51.888;5.408;2023-04-19T12:52:27;102364.69;;;18.35;29.32
30338;BME280;17143;51.888;5.408;2023-04-19T13:07:29;102351.63;;;18.38;30.31
30338;BME280;17143;51.888;5.408;2023-04-19T13:22:31;102332.03;;;18.33;29.06
30338;BME280;17143;51.888;5.408;2023-04-19T13:37:33;102323.94;;;18.67;29.21
30338;BME280;17143;51.888;5.408;2023-04-19T13:52:35;102289.50;;;18.45;30.06
30338;BME280;17143;51.888;5.408;2023-04-19T14:07:38;102280.94;;;18.31;31.11
30338;BME280;17143;51.888;5.408;2023-04-19T14:22:40;102271.25;;;18.49;29.70
30338;BME280;17143;51.888;5.408;2023-04-19T14:37:42;102241.41;;;18.50;28.38
30338;BME280;17143;51.888;5.408;2023-04-19T14:52:44;102210.81;;;18.36;28.01
30338;BME280;17143;51.888;5.408;2023-04-19T15:07:46;102195.59;;;18.31;28.96
30338;BME280;17143;51.888;5.408;2023-04-19T15:22:48;102177.47;;;18.19;31.23
30338;BME280;17143;51.888;5.408;2023-04-19T15:37:50;102175.25;;;18.28;32.35
30338;BME280;17143;51.888;5.408;2023-04-19T15:52:52;102167.09;;;18.03;33.43
30338;BME280;17143;51.888;5.408;2023-04-19T16:08:05;102159.72;;;17.77;33.76
30338;BME280;17143;51.888;5.408;2023-04-19T16:23:08;102151.13;;;17.81;34.53
30338;BME280;17143;51.888;5.408;2023-04-19T16:38:10;102135.31;;;17.26;35.93
30338;BME280;17143;51.888;5.408;2023-04-19T16:53:12;102147.91;;;16.79;35.59
30338;BME280;17143;51.888;5.408;2023-04-19T17:08:14;102127.78;;;16.45;36.70
30338;BME280;17143;51.888;5.408;2023-04-19T17:23:16;102116.75;;;16.19;35.84
30338;BME280;17143;51.888;5.408;2023-04-19T17:38:18;102124.59;;;16.01;37.90
30338;BME280;17143;51.888;5.408;2023-04-19T17:53:20;102130.03;;;15.72;38.65
30338;BME280;17143;51.888;5.408;2023-04-19T18:08:22;102137.31;;;15.31;38.90
30338;BME280;17143;51.888;5.408;2023-04-19T18:23:24;102139.03;;;14.99;40.17
30338;BME280;17143;51.888;5.408;2023-04-19T18:38:26;102142.91;;;14.60;39.35
30338;BME280;17143;51.888;5.408;2023-04-19T18:53:28;102162.75;;;14.28;40.85
30338;BME280;17143;51.888;5.408;2023-04-19T19:08:30;102184.38;;;13.96;41.17
30338;BME280;17143;51.888;5.408;2023-04-19T19:23:32;102195.25;;;13.61;42.02
30338;BME280;17143;51.888;5.408;2023-04-19T19:38:35;102210.44;;;13.26;40.56
30338;BME280;17143;51.888;5.408;2023-04-19T19:53:37;102226.09;;;13.00;39.58
30338;BME280;17143;51.888;5.408;2023-04-19T20:08:39;102240.91;;;12.61;38.26
30338;BME280;17143;51.888;5.408;2023-04-19T20:23:41;102250.16;;;12.32;38.70
30338;BME280;17143;51.888;5.408;2023-04-19T20:38:43;102261.19;;;12.03;39.59
30338;BME280;17143;51.888;5.408;2023-04-19T20:53:45;102256.06;;;11.80;38.73
30338;BME280;17143;51.888;5.408;2023-04-19T21:08:47;102256.31;;;11.48;38.90
30338;BME280;17143;51.888;5.408;2023-04-19T21:23:49;102262.44;;;11.25;39.54
30338;BME280;17143;51.888;5.408;2023-04-19T21:38:51;102250.75;;;10.97;39.38
30338;BME280;17143;51.888;5.408;2023-04-19T21:53:53;102256.06;;;10.75;40.03
30338;BME280;17143;51.888;5.408;2023-04-19T22:08:55;102263.72;;;10.51;39.73
30338;BME280;17143;51.888;5.408;2023-04-19T22:23:57;102260.25;;;10.28;39.75
30338;BME280;17143;51.888;5.408;2023-04-19T22:38:59;102254.91;;;10.05;40.20
30338;BME280;17143;51.888;5.408;2023-04-19T22:54:02;102243.06;;;9.87;40.88
30338;BME280;17143;51.888;5.408;2023-04-19T23:09:04;102243.94;;;9.66;41.50
30338;BME280;17143;51.888;5.408;2023-04-19T23:24:06;102231.03;;;9.46;42.02
30338;BME280;17143;51.888;5.408;2023-04-19T23:39:08;102221.69;;;9.38;42.19
30338;BME280;17143;51.888;5.408;2023-04-19T23:54:10;102209.41;;;9.25;42.48
